createdAt,value
2023-05-12T00:01:14.310Z,5.47
2023-05-12T00:03:43.761Z,5.65
2023-05-12T00:06:12.502Z,5.30
2023-05-12T00:08:40.493Z,4.75
2023-05-12T00:11:08.390Z,5.22
2023-05-12T00:13:36.266Z,4.68
2023-05-12T00:16:04.481Z,4.95
2023-05-12T00:18:32.347Z,5.50
2023-05-12T00:21:01.522Z,5.20
2023-05-12T00:23:29.333Z,5.70
2023-05-12T00:25:57.072Z,5.28
2023-05-12T00:28:24.810Z,5.43
2023-05-12T00:30:52.613Z,5.65
2023-05-12T00:33:20.575Z,5.18
2023-05-12T00:35:48.300Z,4.97
2023-05-12T00:38:17.743Z,4.68
2023-05-12T00:40:45.508Z,4.40
2023-05-12T00:43:13.256Z,4.60
2023-05-12T00:45:41.373Z,4.30
2023-05-12T00:48:09.520Z,4.70
2023-05-12T00:50:37.602Z,4.25
2023-05-12T00:53:05.476Z,5.15
2023-05-12T00:55:34.721Z,4.60
2023-05-12T00:58:02.513Z,5.03
2023-05-12T01:00:30.544Z,4.97
2023-05-12T01:02:58.787Z,4.32
2023-05-12T01:05:31.785Z,5.03
2023-05-12T01:08:01.562Z,5.03
2023-05-12T01:10:29.341Z,5.07
2023-05-12T01:12:58.527Z,5.10
2023-05-12T01:15:26.450Z,5.05
2023-05-12T01:17:59.498Z,4.97
2023-05-12T01:20:28.142Z,5.05
2023-05-12T01:22:56.588Z,4.07
2023-05-12T01:25:25.527Z,4.18
2023-05-12T01:27:55.123Z,5.15
2023-05-12T01:30:24.649Z,4.82
2023-05-12T01:32:53.374Z,4.90
2023-05-12T01:35:21.274Z,4.50
2023-05-12T01:37:49.153Z,4.70
2023-05-12T01:40:18.168Z,4.40
2023-05-12T01:42:46.083Z,4.60
2023-05-12T01:45:15.207Z,4.47
2023-05-12T01:47:43.258Z,4.20
2023-05-12T01:50:11.683Z,4.18
2023-05-12T01:52:39.465Z,4.55
2023-05-12T01:55:08.212Z,4.25
2023-05-12T01:57:35.937Z,3.85
2023-05-12T02:00:03.884Z,4.38
2023-05-12T02:02:34.446Z,6.10
2023-05-12T02:05:02.337Z,4.35
2023-05-12T02:07:30.239Z,4.60
2023-05-12T02:09:58.168Z,3.72
2023-05-12T02:12:25.934Z,4.20
2023-05-12T02:14:53.646Z,4.93
2023-05-12T02:17:21.471Z,4.30
2023-05-12T02:19:51.257Z,4.35
2023-05-12T02:22:19.062Z,4.10
2023-05-12T02:24:46.906Z,4.45
2023-05-12T02:27:14.742Z,5.03
2023-05-12T02:29:42.868Z,4.90
2023-05-12T02:32:11.219Z,5.45
2023-05-12T02:34:39.325Z,5.18
2023-05-12T02:37:08.450Z,5.75
2023-05-12T02:39:36.227Z,6.07
2023-05-12T02:42:03.996Z,5.90
2023-05-12T02:44:31.761Z,5.60
2023-05-12T02:46:59.501Z,5.53
2023-05-12T02:49:27.298Z,5.88
2023-05-12T02:51:55.356Z,5.97
2023-05-12T02:54:24.712Z,5.50
2023-05-12T02:56:53.191Z,5.70
2023-05-12T02:59:20.970Z,5.55
2023-05-12T03:01:48.725Z,6.20
2023-05-12T03:04:16.748Z,5.95
2023-05-12T03:06:44.520Z,6.35
2023-05-12T03:09:12.320Z,6.47
2023-05-12T03:11:41.786Z,5.97
2023-05-12T03:14:09.586Z,6.28
2023-05-12T03:16:37.407Z,5.65
2023-05-12T03:19:05.676Z,5.82
2023-05-12T03:21:33.604Z,5.82
2023-05-12T03:24:01.336Z,6.22
2023-05-12T03:26:29.120Z,6.13
2023-05-12T03:28:58.224Z,6.30
2023-05-12T03:31:26.086Z,6.72
2023-05-12T03:33:54.006Z,6.50
2023-05-12T03:36:21.807Z,6.38
2023-05-12T03:38:49.510Z,5.80
2023-05-12T03:41:18.136Z,5.57
2023-05-12T03:43:45.913Z,5.88
2023-05-12T03:46:15.140Z,5.80
2023-05-12T03:48:43.212Z,5.60
2023-05-12T03:51:10.996Z,5.72
2023-05-12T03:53:40.223Z,6.45
2023-05-12T03:56:08.593Z,5.97
2023-05-12T03:58:36.523Z,6.28
2023-05-12T04:01:04.629Z,6.25
2023-05-12T04:03:33.858Z,5.63
2023-05-12T04:06:02.520Z,5.70
2023-05-12T04:08:30.838Z,5.97
2023-05-12T04:11:01.025Z,5.28
2023-05-12T04:13:30.073Z,5.55
2023-05-12T04:15:58.393Z,5.35
2023-05-12T04:18:26.879Z,5.57
2023-05-12T04:20:56.430Z,5.65
2023-05-12T04:23:24.510Z,5.72
2023-05-12T04:25:52.342Z,5.70
2023-05-12T04:28:20.099Z,6.05
2023-05-12T04:30:47.881Z,5.38
2023-05-12T04:33:15.625Z,5.60
2023-05-12T04:35:43.399Z,6.03
2023-05-12T04:38:12.541Z,6.28
2023-05-12T04:40:40.735Z,6.00
2023-05-12T04:43:08.453Z,6.63
2023-05-12T04:45:36.175Z,6.85
2023-05-12T04:48:04.010Z,7.35
2023-05-12T04:50:31.737Z,6.68
2023-05-12T04:52:59.584Z,7.60
2023-05-12T04:55:28.711Z,8.95
2023-05-12T04:57:56.437Z,8.77
2023-05-12T05:00:24.485Z,8.68
2023-05-12T05:02:52.492Z,10.07
2023-05-12T05:05:20.584Z,11.57
2023-05-12T05:07:48.801Z,13.30
2023-05-12T05:10:16.734Z,13.38
2023-05-12T05:12:45.877Z,14.52
2023-05-12T05:15:13.640Z,14.07
2023-05-12T05:17:43.865Z,16.10
2023-05-12T05:20:15.244Z,14.75
2023-05-12T05:22:43.379Z,15.48
2023-05-12T05:25:11.668Z,15.60
2023-05-12T05:27:39.745Z,16.92
2023-05-12T05:30:10.009Z,16.13
2023-05-12T05:32:40.491Z,18.05
2023-05-12T05:35:09.130Z,15.70
2023-05-12T05:37:37.153Z,15.68
2023-05-12T05:40:05.755Z,15.75
2023-05-12T05:42:33.476Z,15.82
2023-05-12T05:45:01.412Z,17.05
2023-05-12T05:47:31.942Z,15.73
2023-05-12T05:49:59.700Z,16.80
2023-05-12T05:52:27.468Z,17.00
2023-05-12T05:54:55.512Z,16.88
2023-05-12T05:57:23.257Z,16.38
2023-05-12T05:59:51.520Z,18.23
2023-05-12T06:02:23.229Z,16.92
2023-05-12T06:04:52.583Z,18.08
2023-05-12T06:07:22.093Z,18.48
2023-05-12T06:09:50.064Z,16.88
2023-05-12T06:12:17.782Z,18.00
2023-05-12T06:14:45.641Z,18.88
2023-05-12T06:17:13.397Z,18.23
2023-05-12T06:19:41.174Z,18.20
2023-05-12T06:22:10.279Z,18.88
2023-05-12T06:24:38.003Z,19.63
2023-05-12T06:27:05.726Z,20.45
2023-05-12T06:29:33.608Z,19.95
2023-05-12T06:32:01.619Z,19.67
2023-05-12T06:34:29.678Z,20.55
2023-05-12T06:36:57.398Z,20.48
2023-05-12T06:39:26.778Z,19.60
2023-05-12T06:41:54.520Z,21.10
2023-05-12T06:44:22.308Z,21.55
2023-05-12T06:46:50.020Z,20.63
2023-05-12T06:49:17.852Z,22.40
2023-05-12T06:51:45.951Z,20.98
2023-05-12T06:54:13.763Z,20.65
2023-05-12T06:56:42.938Z,20.88
2023-05-12T06:59:11.090Z,19.38
2023-05-12T07:01:39.039Z,20.23
2023-05-12T07:04:07.933Z,19.88
2023-05-12T07:06:35.881Z,18.65
2023-05-12T07:09:04.108Z,19.90
2023-05-12T07:11:31.884Z,19.65
2023-05-12T07:14:01.034Z,17.85
2023-05-12T07:16:28.846Z,19.95
2023-05-12T07:18:56.745Z,19.42
2023-05-12T07:21:24.639Z,18.70
2023-05-12T07:23:52.374Z,19.17
2023-05-12T07:26:21.392Z,19.00
2023-05-12T07:28:49.146Z,19.33
2023-05-12T07:31:18.271Z,19.35
2023-05-12T07:33:46.085Z,20.38
2023-05-12T07:36:13.978Z,19.05
2023-05-12T07:38:41.687Z,19.00
2023-05-12T07:41:09.636Z,18.25
2023-05-12T07:43:37.461Z,18.08
2023-05-12T07:46:05.267Z,18.48
2023-05-12T07:48:39.550Z,18.70
2023-05-12T07:51:08.109Z,18.02
2023-05-12T07:53:36.195Z,18.98
2023-05-12T07:56:04.060Z,18.00
2023-05-12T07:58:31.797Z,17.48
2023-05-12T08:01:01.076Z,17.63
2023-05-12T08:03:28.976Z,18.40
2023-05-12T08:05:58.095Z,18.73
2023-05-12T08:08:25.853Z,17.27
2023-05-12T08:10:53.580Z,17.02
2023-05-12T08:13:23.122Z,16.55
2023-05-12T08:15:51.182Z,15.88
2023-05-12T08:18:19.340Z,16.17
2023-05-12T08:20:47.198Z,16.23
2023-05-12T08:23:17.533Z,16.40
2023-05-12T08:25:45.477Z,15.57
2023-05-12T08:28:13.831Z,14.48
2023-05-12T08:30:41.717Z,15.50
2023-05-12T08:33:09.584Z,15.93
2023-05-12T08:35:37.506Z,13.88
2023-05-12T08:38:05.832Z,14.45
2023-05-12T08:40:44.945Z,15.10
2023-05-12T08:43:24.800Z,15.07
2023-05-12T08:45:57.436Z,14.73
2023-05-12T08:48:27.574Z,14.68
2023-05-12T08:50:56.012Z,14.77
2023-05-12T08:53:26.515Z,13.70
2023-05-12T08:57:10.032Z,13.68
2023-05-12T08:58:47.221Z,14.80
2023-05-12T09:01:17.452Z,13.27
2023-05-12T09:03:45.564Z,12.35
2023-05-12T09:06:14.405Z,12.27
2023-05-12T09:08:42.554Z,11.60
2023-05-12T09:11:13.626Z,12.20
2023-05-12T09:13:51.637Z,11.70
2023-05-12T09:16:23.799Z,11.57
2023-05-12T09:18:53.397Z,12.05
2023-05-12T09:21:21.865Z,11.43
2023-05-12T09:23:57.413Z,10.07
2023-05-12T09:26:27.850Z,9.10
2023-05-12T09:28:57.078Z,8.52
2023-05-12T09:31:26.094Z,8.55
2023-05-12T09:33:53.933Z,8.88
2023-05-12T09:36:22.999Z,7.38
2023-05-12T09:39:00.063Z,6.47
2023-05-12T09:41:29.396Z,6.18
2023-05-12T09:43:57.777Z,6.63
2023-05-12T09:46:26.112Z,6.40
2023-05-12T09:48:56.953Z,6.68
2023-05-12T09:51:25.458Z,6.63
2023-05-12T09:53:53.601Z,5.90
2023-05-12T09:56:22.037Z,6.18
2023-05-12T09:58:51.375Z,6.28
2023-05-12T10:01:24.009Z,5.80
2023-05-12T10:03:55.805Z,5.68
2023-05-12T10:06:28.351Z,6.20
2023-05-12T10:09:05.503Z,6.47
2023-05-12T10:11:33.830Z,4.70
2023-05-12T10:14:04.746Z,3.72
2023-05-12T10:16:34.593Z,3.67
2023-05-12T10:19:04.355Z,3.30
2023-05-12T10:21:33.157Z,3.00
2023-05-12T10:24:04.096Z,3.70
2023-05-12T10:26:34.799Z,3.30
2023-05-12T10:29:04.394Z,3.25
2023-05-12T10:31:33.680Z,3.55
2023-05-12T10:34:03.012Z,3.45
2023-05-12T10:36:31.089Z,3.38
2023-05-12T10:39:06.195Z,3.00
2023-05-12T10:41:35.484Z,3.35
2023-05-12T10:44:05.066Z,3.22
2023-05-12T10:46:33.014Z,2.95
2023-05-12T10:49:04.229Z,3.78
2023-05-12T10:51:33.652Z,3.60
2023-05-12T10:54:03.817Z,2.90
2023-05-12T10:56:43.462Z,3.00
2023-05-12T10:59:19.044Z,3.20
2023-05-12T11:02:05.125Z,3.70
2023-05-12T11:04:42.693Z,3.15
2023-05-12T11:07:13.855Z,3.17
2023-05-12T11:09:56.685Z,3.08
2023-05-12T11:12:27.636Z,2.65
2023-05-12T11:14:56.840Z,2.78
2023-05-12T11:17:24.761Z,3.00
2023-05-12T11:19:52.702Z,2.70
2023-05-12T11:22:22.533Z,2.83
2023-05-12T11:24:51.413Z,2.63
2023-05-12T11:27:20.728Z,2.28
2023-05-12T11:29:59.371Z,2.38
2023-05-12T11:32:27.383Z,2.20
2023-05-12T11:34:58.548Z,2.22
2023-05-12T11:37:26.406Z,2.13
2023-05-12T11:39:54.201Z,1.90
2023-05-12T11:42:25.079Z,1.73
2023-05-12T11:44:55.457Z,1.70
2023-05-12T11:47:24.733Z,1.77
2023-05-12T11:49:54.469Z,1.90
2023-05-12T11:52:23.972Z,1.65
2023-05-12T11:54:54.439Z,1.60
2023-05-12T11:57:28.888Z,1.50
2023-05-12T12:00:04.254Z,1.67
2023-05-12T12:02:33.903Z,1.55
2023-05-12T12:05:02.115Z,1.63
2023-05-12T12:07:31.845Z,1.90
2023-05-12T12:10:00.902Z,1.77
2023-05-12T12:12:28.729Z,1.67
2023-05-12T12:14:59.986Z,1.70
2023-05-12T12:17:30.962Z,1.95
2023-05-12T12:20:00.459Z,1.95
2023-05-12T12:22:29.741Z,1.90
2023-05-12T12:24:57.626Z,1.80
2023-05-12T12:27:25.483Z,1.88
2023-05-12T12:29:53.408Z,1.80
2023-05-12T12:32:21.267Z,1.80
2023-05-12T12:34:49.332Z,1.83
2023-05-12T12:37:20.700Z,1.83
2023-05-12T12:39:48.746Z,2.30
2023-05-12T12:42:16.582Z,2.05
2023-05-12T12:44:46.087Z,1.58
2023-05-12T12:47:14.422Z,1.80
2023-05-12T12:49:42.448Z,1.75
2023-05-12T12:52:10.452Z,1.60
2023-05-12T12:54:39.585Z,1.50
2023-05-12T12:57:07.360Z,1.40
2023-05-12T12:59:35.066Z,1.55
2023-05-12T13:02:02.944Z,1.38
2023-05-12T13:04:30.807Z,1.92
2023-05-12T13:06:58.540Z,1.63
2023-05-12T13:09:26.296Z,1.60
2023-05-12T13:11:55.819Z,1.50
2023-05-12T13:14:24.341Z,1.70
2023-05-12T13:16:52.914Z,1.50
2023-05-12T13:19:21.694Z,1.50
2023-05-12T13:21:49.661Z,1.50
2023-05-12T13:24:17.555Z,1.60
2023-05-12T13:26:45.399Z,1.80
2023-05-12T13:29:14.565Z,1.73
2023-05-12T13:31:43.149Z,1.70
2023-05-12T13:34:11.078Z,2.05
2023-05-12T13:36:39.068Z,1.60
2023-05-12T13:39:06.875Z,1.50
2023-05-12T13:41:34.852Z,1.50
2023-05-12T13:44:02.739Z,1.80
2023-05-12T13:46:31.929Z,1.63
2023-05-12T13:48:59.753Z,1.85
2023-05-12T13:51:27.721Z,1.90
2023-05-12T13:53:55.865Z,1.80
2023-05-12T13:56:24.239Z,1.60
2023-05-12T13:58:51.998Z,1.45
2023-05-12T14:01:19.869Z,1.63
2023-05-12T14:03:49.120Z,1.80
2023-05-12T14:06:17.147Z,1.50
2023-05-12T14:08:44.951Z,1.60
2023-05-12T14:11:12.715Z,1.60
2023-05-12T14:13:40.614Z,1.50
2023-05-12T14:16:09.384Z,1.60
2023-05-12T14:18:37.565Z,1.88
2023-05-12T14:21:06.883Z,4.35
2023-05-12T14:23:34.901Z,6.43
2023-05-12T14:26:03.581Z,8.20
2023-05-12T14:28:31.398Z,9.40
2023-05-12T14:30:59.326Z,10.05
2023-05-12T14:33:27.222Z,7.88
2023-05-12T14:36:05.956Z,9.15
2023-05-12T14:38:36.330Z,8.00
2023-05-12T14:41:04.241Z,6.55
2023-05-12T14:43:32.434Z,7.72
2023-05-12T14:46:01.857Z,9.73
2023-05-12T14:48:29.705Z,9.75
2023-05-12T14:50:58.201Z,9.93
2023-05-12T14:53:26.000Z,10.40
2023-05-12T14:55:55.410Z,8.35
2023-05-12T14:58:24.331Z,7.88
2023-05-12T15:00:52.828Z,8.27
2023-05-12T15:03:21.846Z,7.53
2023-05-12T15:08:21.608Z,4.43
2023-05-12T15:10:49.846Z,3.47
2023-05-12T15:13:20.609Z,3.47
2023-05-12T15:15:48.639Z,2.78
2023-05-12T15:18:16.851Z,3.10
2023-05-12T15:20:44.616Z,3.10
2023-05-12T15:23:12.399Z,3.60
2023-05-12T15:25:41.258Z,3.40
2023-05-12T15:28:09.444Z,3.60
2023-05-12T15:30:38.591Z,5.10
2023-05-12T15:33:06.702Z,6.40
2023-05-12T15:35:34.879Z,7.18
2023-05-12T15:38:02.729Z,8.63
2023-05-12T15:40:31.426Z,8.57
2023-05-12T15:42:59.270Z,7.75
2023-05-12T15:45:27.153Z,6.93
2023-05-12T15:47:56.816Z,7.28
2023-05-12T15:50:24.682Z,7.70
2023-05-12T15:52:52.511Z,7.63
2023-05-12T15:55:20.870Z,7.28
2023-05-12T15:57:49.042Z,7.13
2023-05-12T16:00:18.005Z,6.82
2023-05-12T16:02:45.905Z,7.40
2023-05-12T16:05:15.196Z,7.75
2023-05-12T16:07:43.470Z,7.78
2023-05-12T16:10:11.757Z,6.97
2023-05-12T16:12:40.163Z,7.57
2023-05-12T16:15:08.719Z,8.10
2023-05-12T16:17:36.516Z,7.15
2023-05-12T16:20:04.618Z,7.03
2023-05-12T16:22:33.974Z,6.72
2023-05-12T16:25:01.819Z,7.05
2023-05-12T16:27:29.684Z,7.45
2023-05-12T16:29:57.508Z,7.28
2023-05-12T16:32:25.434Z,7.28
2023-05-12T16:34:53.324Z,7.40
2023-05-12T16:37:22.722Z,7.30
2023-05-12T16:39:52.180Z,7.68
2023-05-12T16:42:20.224Z,7.65
2023-05-12T16:44:48.490Z,7.30
2023-05-12T16:47:16.860Z,7.30
2023-05-12T16:49:44.667Z,7.40
2023-05-12T16:52:12.696Z,5.53
2023-05-12T16:54:40.443Z,3.15
2023-05-12T16:57:09.648Z,2.40
2023-05-12T16:59:38.689Z,3.17
2023-05-12T17:02:08.409Z,3.50
2023-05-12T17:04:36.523Z,3.30
2023-05-12T17:07:04.320Z,3.28
2023-05-12T17:09:32.296Z,2.60
2023-05-12T17:12:00.122Z,3.40
2023-05-12T17:14:29.573Z,3.67
2023-05-12T17:16:57.636Z,3.60
2023-05-12T17:19:25.399Z,3.13
2023-05-12T17:21:53.751Z,3.30
2023-05-12T17:24:21.751Z,3.20
2023-05-12T17:26:49.767Z,3.28
2023-05-12T17:29:17.920Z,3.75
2023-05-12T17:31:47.262Z,3.45
2023-05-12T17:34:15.354Z,3.90
2023-05-12T17:36:43.418Z,3.22
2023-05-12T17:39:14.827Z,3.95
2023-05-12T17:41:42.748Z,3.17
2023-05-12T17:44:10.726Z,3.40
2023-05-12T17:46:39.026Z,3.45
2023-05-12T17:49:08.324Z,4.00
2023-05-12T17:51:36.370Z,3.70
2023-05-12T17:54:05.031Z,4.10
2023-05-12T17:56:34.186Z,3.72
2023-05-12T17:59:02.674Z,3.80
2023-05-12T18:01:30.686Z,3.53
2023-05-12T18:03:58.598Z,3.97
2023-05-12T18:06:27.775Z,5.53
2023-05-12T18:08:56.607Z,4.30
2023-05-12T18:11:24.448Z,4.05
2023-05-12T18:13:52.533Z,3.95
2023-05-12T18:16:28.657Z,3.30
2023-05-12T18:18:57.429Z,4.55
2023-05-12T18:21:25.932Z,16.30
2023-05-12T18:23:55.822Z,4.75
2023-05-12T18:26:24.031Z,4.40
2023-05-12T18:28:51.940Z,5.95
2023-05-12T18:31:20.507Z,5.50
2023-05-12T18:33:48.877Z,5.22
2023-05-12T18:36:16.891Z,4.70
2023-05-12T18:38:45.077Z,8.25
2023-05-12T18:41:14.252Z,11.10
2023-05-12T18:43:44.017Z,5.65
2023-05-12T18:46:12.502Z,4.72
2023-05-12T18:48:40.904Z,4.28
2023-05-12T18:51:09.570Z,4.20
2023-05-12T18:53:37.493Z,4.70
2023-05-12T18:56:05.562Z,4.72
2023-05-12T18:58:34.813Z,4.55
2023-05-12T19:01:03.856Z,3.95
2023-05-12T19:03:33.080Z,4.05
2023-05-12T19:06:01.159Z,5.05
2023-05-12T19:08:28.984Z,5.13
2023-05-12T19:10:56.823Z,4.57
2023-05-12T19:13:24.682Z,5.20
2023-05-12T19:15:53.906Z,5.65
2023-05-12T19:18:21.940Z,4.47
2023-05-12T19:20:49.884Z,6.40
2023-05-12T19:23:17.831Z,10.70
2023-05-12T19:25:45.710Z,7.80
2023-05-12T19:28:13.519Z,8.43
2023-05-12T19:30:41.834Z,5.88
2023-05-12T19:33:11.069Z,6.68
2023-05-12T19:35:39.258Z,5.72
2023-05-12T19:38:07.094Z,7.88
2023-05-12T19:40:35.241Z,6.95
2023-05-12T19:43:05.052Z,6.40
2023-05-12T19:45:32.920Z,6.40
2023-05-12T19:48:00.804Z,5.82
2023-05-12T19:50:30.763Z,6.15
2023-05-12T19:52:58.707Z,5.78
2023-05-12T19:55:26.982Z,5.75
2023-05-12T19:57:54.851Z,9.70
2023-05-12T20:00:22.799Z,6.90
2023-05-12T20:02:51.119Z,6.30
2023-05-12T20:05:19.394Z,6.75
2023-05-12T20:07:49.530Z,6.90
2023-05-12T20:10:17.691Z,6.72
2023-05-12T20:12:45.563Z,7.25
2023-05-12T20:15:13.344Z,6.78
2023-05-12T20:17:41.302Z,7.03
2023-05-12T20:20:11.834Z,6.70
2023-05-12T20:22:39.997Z,7.53
2023-05-12T20:25:12.483Z,8.00
2023-05-12T20:27:40.483Z,7.63
2023-05-12T20:30:09.789Z,8.30
2023-05-12T20:32:37.747Z,8.02
2023-05-12T20:35:06.463Z,10.30
2023-05-12T20:37:34.634Z,10.50
2023-05-12T20:40:03.180Z,10.63
2023-05-12T20:42:32.358Z,10.30
2023-05-12T20:45:00.234Z,10.68
2023-05-12T20:47:30.438Z,10.80
2023-05-12T20:49:58.720Z,11.00
2023-05-12T20:52:28.957Z,11.10
2023-05-12T20:54:58.114Z,11.02
2023-05-12T20:57:26.045Z,10.93
2023-05-12T20:59:56.848Z,10.90
2023-05-12T21:02:25.044Z,11.57
2023-05-12T21:04:53.336Z,10.63
2023-05-12T21:07:21.753Z,11.07
2023-05-12T21:09:49.866Z,10.13
2023-05-12T21:12:17.805Z,10.88
2023-05-12T21:14:46.336Z,10.88
2023-05-12T21:17:16.658Z,10.95
2023-05-12T21:19:44.553Z,10.35
2023-05-12T21:22:13.128Z,10.10
2023-05-12T21:24:42.219Z,10.98
2023-05-12T21:27:10.146Z,9.45
2023-05-12T21:29:37.994Z,10.57
2023-05-12T21:32:06.549Z,9.40
2023-05-12T21:34:36.181Z,10.13
2023-05-12T21:37:04.106Z,9.20
2023-05-12T21:39:31.909Z,9.88
2023-05-12T21:41:59.709Z,10.52
2023-05-12T21:44:27.823Z,9.55
2023-05-12T21:46:55.634Z,9.52
2023-05-12T21:49:23.532Z,10.18
2023-05-12T21:51:55.870Z,9.32
2023-05-12T21:54:23.717Z,10.02
2023-05-12T21:56:51.786Z,10.05
2023-05-12T21:59:20.683Z,9.45
2023-05-12T22:01:48.597Z,11.18
2023-05-12T22:04:16.607Z,10.48
2023-05-12T22:06:44.476Z,10.98
2023-05-12T22:09:13.773Z,12.10
2023-05-12T22:11:42.004Z,11.73
2023-05-12T22:14:09.860Z,11.27
2023-05-12T22:16:41.910Z,11.13
2023-05-12T22:19:10.622Z,11.38
2023-05-12T22:21:38.646Z,11.05
2023-05-12T22:24:07.027Z,11.18
2023-05-12T22:26:36.183Z,12.25
2023-05-12T22:29:03.956Z,12.60
2023-05-12T22:31:31.816Z,12.68
2023-05-12T22:33:59.620Z,12.85
2023-05-12T22:36:27.402Z,13.43
2023-05-12T22:38:55.172Z,12.95
2023-05-12T22:41:22.991Z,14.00
2023-05-12T22:43:52.247Z,12.60
2023-05-12T22:46:20.040Z,14.05
2023-05-12T22:48:47.916Z,13.65
2023-05-12T22:51:15.773Z,13.35
2023-05-12T22:53:43.522Z,14.45
2023-05-12T22:56:11.324Z,15.43
2023-05-12T22:58:39.092Z,15.00
2023-05-12T23:01:08.321Z,14.77
2023-05-12T23:03:36.197Z,15.15
2023-05-12T23:06:03.990Z,14.88
2023-05-12T23:08:31.778Z,15.80
2023-05-12T23:10:59.610Z,15.80
2023-05-12T23:13:27.449Z,17.52
2023-05-12T23:15:55.194Z,17.20
2023-05-12T23:18:24.422Z,16.33
2023-05-12T23:20:52.249Z,16.08
2023-05-12T23:23:19.994Z,16.50
2023-05-12T23:25:48.041Z,16.00
2023-05-12T23:28:15.880Z,16.38
2023-05-12T23:30:43.678Z,14.93
2023-05-12T23:33:11.591Z,16.20
2023-05-12T23:35:40.794Z,15.55
2023-05-12T23:38:08.568Z,14.48
2023-05-12T23:40:39.098Z,14.75
2023-05-12T23:43:07.361Z,14.55
2023-05-12T23:45:35.867Z,14.77
2023-05-12T23:48:03.687Z,13.65
2023-05-12T23:50:31.605Z,13.35
2023-05-12T23:53:00.722Z,13.70
2023-05-12T23:55:28.666Z,13.85
2023-05-12T23:57:56.748Z,13.50
